MDT,Max TemperatureF,Mean TemperatureF,Min TemperatureF,Max Dew PointF,MeanDew PointF,Min DewpointF,Max Humidity, Mean Humidity, Min Humidity, Max Sea Level PressureIn, Mean Sea Level PressureIn, Min Sea Level PressureIn, Max VisibilityMiles, Mean VisibilityMiles, Min VisibilityMiles, Max Wind SpeedMPH, Mean Wind SpeedMPH, Max Gust SpeedMPH,PrecipitationIn, CloudCover, Events, WindDirDegrees
2012-10-1,82,62,41,31,27,24,53,28,7,30.23,30.12,30.04,10,10,10,14,6,20,0.00,0,Rain,320
2012-10-2,86,62,37,30,26,23,55,27,5,30.08,29.97,29.87,10,10,10,13,7,,0.00,0,,190
2012-10-3,86,64,42,29,23,12,42,20,5,29.97,29.90,29.82,10,10,10,16,10,,0.00,0,,255
2012-10-4,82,58,35,29,21,11,38,21,6,30.08,29.97,29.87,10,10,10,21,6,33,0.00,0,,185
2012-10-5,73,57,41,28,20,12,51,23,6,30.08,30.00,29.94,10,10,10,17,8,21,0.00,0,,354
2012-10-6,66,51,36,16,13,11,36,19,6,30.12,30.03,29.96,10,10,10,17,10,23,0.00,0,,8
2012-10-7,66,47,28,12,9,5,43,21,4,30.18,30.09,30.03,10,10,10,14,8,25,0.00,0,,4
2012-10-8,77,54,30,28,17,6,40,22,6,30.08,29.96,29.86,10,10,10,20,7,28,0.00,0,,196
2012-10-9,77,58,39,31,28,26,58,30,8,29.98,29.91,29.85,10,10,10,16,8,23,0.00,0,,203
2012-10-10,77,62,48,44,36,27,68,39,16,30.01,29.91,29.83,10,10,10,17,8,24,0.00,1,,197
2012-10-11,73,56,39,47,39,34,83,56,16,29.98,29.87,29.83,10,10,10,23,5,30,0.01,3,Rain,191
2012-10-12,51,48,44,47,43,39,93,83,59,30.08,29.95,29.82,10,8,2,18,8,28,0.39,8,Rain,183
2012-10-13,64,52,41,45,42,39,93,72,27,30.24,30.14,30.01,10,10,7,15,10,,0.08,4,Rain,214
2012-10-14,66,51,36,44,40,36,93,67,25,30.34,30.25,30.17,10,10,10,13,4,,0.00,0,,345
2012-10-15,73,55,37,43,38,32,93,62,15,30.14,30.05,29.97,10,10,10,15,6,,0.00,0,,176
2012-10-16,81,60,39,44,38,35,86,50,12,29.98,29.87,29.69,10,10,10,20,10,28,0.00,0,,198
2012-10-17,61,48,35,40,22,13,63,36,7,30.19,30.09,29.94,10,10,10,15,10,21,0.00,0,,357
2012-10-18,66,46,27,26,18,7,78,39,4,30.32,30.23,30.17,10,10,10,16,5,22,0.00,0,,353
2012-10-19,75,52,28,30,25,20,75,38,8,30.17,30.03,29.87,10,10,10,13,6,,0.00,0,,193
2012-10-20,78,60,43,29,26,19,56,28,7,29.86,29.75,29.63,10,10,10,30,16,39,0.00,0,,205
2012-10-21,72,60,48,40,35,27,61,40,23,29.76,29.69,29.64,10,10,10,32,15,44,0.00,0,,202
2012-10-22,68,57,46,43,38,34,80,49,21,29.71,29.66,29.61,10,10,10,41,19,53,0.00,1,,206
2012-10-23,64,54,44,37,31,20,66,42,13,29.80,29.72,29.63,10,10,10,26,18,36,0.00,0,,209
2012-10-24,46,37,28,36,30,27,92,73,44,30.13,29.97,29.81,10,10,10,20,13,,0.01,5,Rain,2
2012-10-25,50,36,21,33,24,20,92,66,26,30.37,30.23,30.13,10,10,7,21,7,26,0.00,2,,314
2012-10-26,50,34,18,24,18,16,85,56,16,30.48,30.35,30.22,10,10,10,14,6,20,0.00,0,,359
2012-10-27,60,40,19,22,17,13,74,42,10,30.27,30.19,30.12,10,10,10,9,5,,0.00,0,,243
2012-10-28,69,47,25,26,22,18,78,42,10,30.22,30.14,30.04,10,10,10,9,4,,0.00,0,,236
2012-10-29,73,52,30,25,23,22,66,39,8,30.20,30.14,30.09,10,10,10,15,7,,0.00,0,,204
2012-10-30,73,50,30,27,24,22,72,42,9,30.22,30.12,30.04,10,10,10,9,6,,0.00,0,,196
2012-10-31,75,52,28,27,21,11,72,34,6,30.17,30.05,29.95,10,10,10,18,9,23,0.00,0,,196